Aérodrome :
LOGIN :

S'inscrire | Disclaimer

   EN    FR    IT 

 










Légende :    VFR   VFR Marginal   IFR   IFR Intensif   IFR Très Intensif
Visi : 
Plafond : 
>= 8 km
>= 3000ft
5 à 8 km
1000 à 3000 ft
1500m à 5 km
500 à 1000 ft
800 à 1500m
200 à 500 ft
< 800m
< 200 ft
Symboles :   Orages  Brouillard  Fortes neiges  Fortes précipitations  Vent > 20 kt
SIGMETs :   Divers  Orages  Givrage  Turbulence  Onde Orograph.  Cendres Volcan.







- Altitude de l'aérodrome : 659 ft
- Code IATA : LYN
- Voir les cartes d'approche


LFLY - Lyon Bron

DERNIER METAR :
  • 212200Z AUTO 11003KT CAVOK 19/17 Q1013 NOSIG

METARs EXPIRÉS :
  • 212130Z AUTO 12003KT CAVOK 19/17 Q1013 NOSIG
  • 212100Z AUTO 16002KT CAVOK 20/18 Q1013 NOSIG
  • 212030Z AUTO 00000KT CAVOK 20/18 Q1013 NOSIG
  • 212000Z AUTO 00000KT CAVOK 20/18 Q1013 NOSIG
  • 211930Z AUTO 22002KT CAVOK 21/18 Q1012 NOSIG

TAF TAF LFLY
Valide du 21 à 18h jusqu'au 22 à 18h UTC


211700Z 2118/2218 14008KT 9999 SCT040 BKN055
TEMPO 2118/2120 RA
BECMG 2121/2123 CAVOK
BECMG 2208/2210 FEW060TCU
TEMPO 2211/2217 SHRA SCT060TCU
PROB40
TEMPO 2211/2217 VRB15G25KT 3500 TSRA BKN050CB
PROB30
TEMPO 2212/2217 VRB25G35KT 1400 TSGR OVC030CB
ATIS : +33 4 72 15 87 96
Pas de NOTAMs connus pour ce terrain.



MET'MAP, la Météo Aéronautique d'un coup d'oeil ! - Copyright ORBIFLY Décembre 2007 - Disclaimer

ORBIFLY MET'MAP TEAM :

Programmation & Développement : Alexandra Zaïnal
Conception & Développement : Baudouin d'Aumeries
Co-Programmation & Développement : Marc-Olivier Méhu
Soutien technique & logistique : Manuel Goepfert

Contact : metmap@orbifly.com




SOURCES & CREDITS :

   NOAA